createdAt,value
2023-01-27T00:07:29.000Z,991.56
2023-01-27T00:22:04.000Z,991.57
2023-01-27T00:36:42.000Z,991.57
2023-01-27T00:51:20.000Z,991.57
2023-01-27T01:06:01.000Z,991.52
2023-01-27T01:20:36.000Z,991.60
2023-01-27T01:35:13.000Z,991.72
2023-01-27T01:49:50.000Z,991.78
2023-01-27T02:04:28.000Z,991.74
2023-01-27T02:19:05.000Z,991.63
2023-01-27T02:33:45.000Z,991.65
2023-01-27T02:48:16.000Z,991.65
2023-01-27T03:02:55.000Z,991.68
2023-01-27T03:17:33.000Z,991.77
2023-01-27T03:32:10.000Z,991.74
2023-01-27T03:46:44.000Z,991.86
2023-01-27T04:01:20.000Z,991.87
2023-01-27T04:15:55.000Z,992.01
2023-01-27T04:30:31.000Z,991.93
2023-01-27T04:45:09.000Z,991.95
2023-01-27T04:59:46.000Z,991.99
2023-01-27T05:14:23.000Z,992.10
2023-01-27T05:29:01.000Z,992.23
2023-01-27T05:43:38.000Z,992.41
2023-01-27T05:58:14.000Z,992.46
2023-01-27T06:12:52.000Z,992.66
2023-01-27T06:27:30.000Z,992.74
2023-01-27T06:42:06.000Z,992.82
2023-01-27T06:56:44.000Z,992.90
2023-01-27T07:11:20.000Z,992.96
2023-01-27T07:25:58.000Z,992.94
2023-01-27T07:40:36.000Z,993.17
2023-01-27T07:55:14.000Z,993.19
2023-01-27T08:09:54.000Z,993.36
2023-01-27T08:24:30.000Z,993.51
2023-01-27T08:39:07.000Z,993.65
2023-01-27T08:53:41.000Z,993.75
2023-01-27T09:08:19.000Z,993.79
2023-01-27T09:22:58.000Z,993.91
2023-01-27T09:37:38.000Z,993.90
2023-01-27T09:52:09.000Z,993.79
2023-01-27T10:06:47.000Z,993.91
2023-01-27T10:21:26.000Z,994.04
2023-01-27T10:35:54.000Z,994.07
2023-01-27T10:50:27.000Z,994.12
2023-01-27T11:05:04.000Z,994.28
2023-01-27T11:19:44.000Z,994.29
2023-01-27T11:34:27.000Z,994.07
2023-01-27T11:49:06.000Z,993.97
2023-01-27T12:03:41.000Z,993.89
2023-01-27T12:18:16.000Z,993.65
2023-01-27T12:33:00.000Z,993.48
2023-01-27T12:47:34.000Z,993.33
2023-01-27T13:02:09.000Z,993.30
2023-01-27T13:16:41.000Z,993.46
2023-01-27T13:31:14.000Z,993.56
2023-01-27T13:45:48.000Z,993.59
2023-01-27T14:00:25.000Z,993.61
2023-01-27T14:15:00.000Z,993.70
2023-01-27T14:29:39.000Z,993.90
2023-01-27T14:44:15.000Z,994.03
2023-01-27T14:58:51.000Z,994.19
2023-01-27T15:13:27.000Z,994.21
2023-01-27T15:28:03.000Z,994.28
2023-01-27T15:42:41.000Z,994.53
2023-01-27T15:57:12.000Z,994.65
2023-01-27T16:11:47.000Z,994.73
2023-01-27T16:26:23.000Z,994.65
2023-01-27T16:41:01.000Z,994.83
2023-01-27T16:55:39.000Z,994.89
2023-01-27T17:10:16.000Z,994.96
2023-01-27T17:24:46.000Z,995.09
2023-01-27T17:39:27.000Z,995.14
2023-01-27T17:54:03.000Z,995.36
2023-01-27T18:08:42.000Z,995.48
2023-01-27T18:23:19.000Z,995.52
2023-01-27T18:37:58.000Z,995.56
2023-01-27T18:52:32.000Z,995.72
2023-01-27T19:07:10.000Z,995.71
2023-01-27T19:21:49.000Z,995.84
2023-01-27T19:36:25.000Z,995.83
2023-01-27T19:51:04.000Z,995.91
2023-01-27T20:05:33.000Z,996.04
2023-01-27T20:20:10.000Z,996.02
2023-01-27T20:34:47.000Z,996.11
2023-01-27T20:49:25.000Z,996.28
2023-01-27T21:04:04.000Z,996.33
2023-01-27T21:18:43.000Z,996.31
2023-01-27T21:33:16.000Z,996.39
2023-01-27T21:47:58.000Z,996.33
2023-01-27T22:02:24.000Z,996.39
2023-01-27T22:17:00.000Z,996.40
2023-01-27T22:31:38.000Z,996.31
2023-01-27T22:46:15.000Z,996.31
2023-01-27T23:00:54.000Z,996.18
2023-01-27T23:15:31.000Z,996.27
2023-01-27T23:30:09.000Z,996.34
2023-01-27T23:44:48.000Z,996.39
2023-01-27T23:59:26.000Z,996.56
